sensor_id;sensor_type;location;lat;lon;timestamp;temperature;humidity
65044;DHT22;51617;48.158;16.464;2023-02-03T00:00:04;4.90;96.80
65044;DHT22;51617;48.158;16.464;2023-02-03T00:02:31;4.90;96.80
65044;DHT22;51617;48.158;16.464;2023-02-03T00:04:56;4.90;96.70
65044;DHT22;51617;48.158;16.464;2023-02-03T00:07:22;4.90;96.80
65044;DHT22;51617;48.158;16.464;2023-02-03T00:09:47;4.90;96.70
65044;DHT22;51617;48.158;16.464;2023-02-03T00:12:13;4.90;96.70
65044;DHT22;51617;48.158;16.464;2023-02-03T00:14:39;5.00;96.70
65044;DHT22;51617;48.158;16.464;2023-02-03T00:17:05;5.00;96.70
65044;DHT22;51617;48.158;16.464;2023-02-03T00:19:31;5.00;96.70
65044;DHT22;51617;48.158;16.464;2023-02-03T00:21:56;4.90;96.70
65044;DHT22;51617;48.158;16.464;2023-02-03T00:24:22;5.00;96.70
65044;DHT22;51617;48.158;16.464;2023-02-03T00:26:48;4.90;96.80
65044;DHT22;51617;48.158;16.464;2023-02-03T00:29:14;4.90;96.70
65044;DHT22;51617;48.158;16.464;2023-02-03T00:31:40;4.90;96.70
65044;DHT22;51617;48.158;16.464;2023-02-03T00:34:06;4.90;96.80
65044;DHT22;51617;48.158;16.464;2023-02-03T00:36:31;4.90;96.90
65044;DHT22;51617;48.158;16.464;2023-02-03T00:38:58;4.90;96.90
65044;DHT22;51617;48.158;16.464;2023-02-03T00:41:28;4.90;97.00
65044;DHT22;51617;48.158;16.464;2023-02-03T00:43:54;4.90;97.10
65044;DHT22;51617;48.158;16.464;2023-02-03T00:46:20;4.90;97.00
65044;DHT22;51617;48.158;16.464;2023-02-03T00:48:45;4.90;97.10
65044;DHT22;51617;48.158;16.464;2023-02-03T00:51:11;4.90;97.20
65044;DHT22;51617;48.158;16.464;2023-02-03T00:53:37;4.90;97.30
65044;DHT22;51617;48.158;16.464;2023-02-03T00:56:02;4.90;97.40
65044;DHT22;51617;48.158;16.464;2023-02-03T00:58:28;4.90;97.40
65044;DHT22;51617;48.158;16.464;2023-02-03T01:00:57;4.90;97.50
65044;DHT22;51617;48.158;16.464;2023-02-03T01:03:22;4.90;97.50
65044;DHT22;51617;48.158;16.464;2023-02-03T01:05:48;4.90;97.60
65044;DHT22;51617;48.158;16.464;2023-02-03T01:08:13;4.90;97.60
65044;DHT22;51617;48.158;16.464;2023-02-03T01:10:39;4.80;97.60
65044;DHT22;51617;48.158;16.464;2023-02-03T01:13:05;4.90;97.70
65044;DHT22;51617;48.158;16.464;2023-02-03T01:15:30;4.80;97.80
65044;DHT22;51617;48.158;16.464;2023-02-03T01:17:56;4.80;97.70
65044;DHT22;51617;48.158;16.464;2023-02-03T01:20:22;4.90;97.80
65044;DHT22;51617;48.158;16.464;2023-02-03T01:22:48;4.90;97.80
65044;DHT22;51617;48.158;16.464;2023-02-03T01:25:14;4.90;97.70
65044;DHT22;51617;48.158;16.464;2023-02-03T01:27:39;4.80;97.80
65044;DHT22;51617;48.158;16.464;2023-02-03T01:30:05;4.80;97.80
65044;DHT22;51617;48.158;16.464;2023-02-03T01:32:31;4.70;97.90
65044;DHT22;51617;48.158;16.464;2023-02-03T01:34:57;4.70;97.90
65044;DHT22;51617;48.158;16.464;2023-02-03T01:37:22;4.70;97.90
65044;DHT22;51617;48.158;16.464;2023-02-03T01:39:48;4.70;97.90
65044;DHT22;51617;48.158;16.464;2023-02-03T01:42:14;4.70;97.90
65044;DHT22;51617;48.158;16.464;2023-02-03T01:44:48;4.70;97.90
65044;DHT22;51617;48.158;16.464;2023-02-03T01:47:24;4.70;97.90
65044;DHT22;51617;48.158;16.464;2023-02-03T01:50:11;4.70;97.80
65044;DHT22;51617;48.158;16.464;2023-02-03T01:52:41;4.70;97.80
65044;DHT22;51617;48.158;16.464;2023-02-03T01:55:15;4.70;97.80
65044;DHT22;51617;48.158;16.464;2023-02-03T01:57:46;4.70;97.80
65044;DHT22;51617;48.158;16.464;2023-02-03T02:00:16;4.70;97.70
65044;DHT22;51617;48.158;16.464;2023-02-03T02:02:44;4.70;97.70
65044;DHT22;51617;48.158;16.464;2023-02-03T02:07:55;4.80;97.80
65044;DHT22;51617;48.158;16.464;2023-02-03T02:10:22;4.80;97.80
65044;DHT22;51617;48.158;16.464;2023-02-03T02:12:48;4.80;97.60
65044;DHT22;51617;48.158;16.464;2023-02-03T02:15:14;4.80;97.70
65044;DHT22;51617;48.158;16.464;2023-02-03T02:26:47;4.80;98.20
65044;DHT22;51617;48.158;16.464;2023-02-03T02:37:47;4.90;98.00
65044;DHT22;51617;48.158;16.464;2023-02-03T02:40:36;4.90;98.00
65044;DHT22;51617;48.158;16.464;2023-02-03T02:43:18;4.90;98.10
65044;DHT22;51617;48.158;16.464;2023-02-03T02:45:47;4.90;98.00
65044;DHT22;51617;48.158;16.464;2023-02-03T02:48:21;5.00;98.10
65044;DHT22;51617;48.158;16.464;2023-02-03T02:50:50;4.90;98.10
65044;DHT22;51617;48.158;16.464;2023-02-03T02:53:20;4.90;98.30
65044;DHT22;51617;48.158;16.464;2023-02-03T02:55:46;4.90;98.40
65044;DHT22;51617;48.158;16.464;2023-02-03T02:58:14;5.00;98.50
65044;DHT22;51617;48.158;16.464;2023-02-03T03:00:42;4.90;98.80
65044;DHT22;51617;48.158;16.464;2023-02-03T03:03:17;4.80;99.00
65044;DHT22;51617;48.158;16.464;2023-02-03T03:06:01;4.90;99.20
65044;DHT22;51617;48.158;16.464;2023-02-03T03:08:36;4.80;99.30
65044;DHT22;51617;48.158;16.464;2023-02-03T03:11:04;4.70;99.70
65044;DHT22;51617;48.158;16.464;2023-02-03T03:13:37;4.60;99.90
65044;DHT22;51617;48.158;16.464;2023-02-03T03:16:04;4.60;99.90
65044;DHT22;51617;48.158;16.464;2023-02-03T03:18:42;4.50;99.90
65044;DHT22;51617;48.158;16.464;2023-02-03T03:21:12;4.40;99.90
65044;DHT22;51617;48.158;16.464;2023-02-03T03:23:40;4.50;99.90
65044;DHT22;51617;48.158;16.464;2023-02-03T03:26:15;4.40;99.90
65044;DHT22;51617;48.158;16.464;2023-02-03T03:28:52;4.40;99.90
65044;DHT22;51617;48.158;16.464;2023-02-03T03:31:19;4.30;99.90
65044;DHT22;51617;48.158;16.464;2023-02-03T03:33:45;4.30;99.90
65044;DHT22;51617;48.158;16.464;2023-02-03T03:36:26;4.40;99.90
65044;DHT22;51617;48.158;16.464;2023-02-03T03:39:07;4.40;99.90
65044;DHT22;51617;48.158;16.464;2023-02-03T03:44:21;4.40;99.90
65044;DHT22;51617;48.158;16.464;2023-02-03T03:47:36;4.40;99.90
65044;DHT22;51617;48.158;16.464;2023-02-03T03:50:00;4.50;99.90
65044;DHT22;51617;48.158;16.464;2023-02-03T03:52:28;4.40;99.90
65044;DHT22;51617;48.158;16.464;2023-02-03T03:54:55;4.50;99.90
65044;DHT22;51617;48.158;16.464;2023-02-03T04:00:16;4.50;99.90
65044;DHT22;51617;48.158;16.464;2023-02-03T04:02:46;4.50;99.90
65044;DHT22;51617;48.158;16.464;2023-02-03T04:05:17;4.50;99.90
65044;DHT22;51617;48.158;16.464;2023-02-03T04:07:45;4.50;99.90
65044;DHT22;51617;48.158;16.464;2023-02-03T04:10:26;4.50;99.90
65044;DHT22;51617;48.158;16.464;2023-02-03T04:12:55;4.50;99.90
65044;DHT22;51617;48.158;16.464;2023-02-03T04:15:20;4.50;99.90
65044;DHT22;51617;48.158;16.464;2023-02-03T04:17:46;4.60;99.90
65044;DHT22;51617;48.158;16.464;2023-02-03T04:20:12;4.60;99.90
65044;DHT22;51617;48.158;16.464;2023-02-03T04:22:38;4.60;99.90
65044;DHT22;51617;48.158;16.464;2023-02-03T04:25:04;4.80;99.90
65044;DHT22;51617;48.158;16.464;2023-02-03T04:27:30;4.80;99.90
65044;DHT22;51617;48.158;16.464;2023-02-03T04:29:55;4.90;99.90
65044;DHT22;51617;48.158;16.464;2023-02-03T04:32:21;4.80;99.90
65044;DHT22;51617;48.158;16.464;2023-02-03T04:34:47;4.90;99.90
65044;DHT22;51617;48.158;16.464;2023-02-03T04:37:12;5.00;99.90
65044;DHT22;51617;48.158;16.464;2023-02-03T04:39:38;5.00;99.90
65044;DHT22;51617;48.158;16.464;2023-02-03T04:42:04;5.10;99.90
65044;DHT22;51617;48.158;16.464;2023-02-03T04:44:29;5.10;99.90
65044;DHT22;51617;48.158;16.464;2023-02-03T04:46:55;5.00;99.90
65044;DHT22;51617;48.158;16.464;2023-02-03T04:49:21;5.10;99.90
65044;DHT22;51617;48.158;16.464;2023-02-03T04:51:49;5.00;99.90
65044;DHT22;51617;48.158;16.464;2023-02-03T04:54:15;5.00;99.90
65044;DHT22;51617;48.158;16.464;2023-02-03T04:56:41;4.90;99.90
65044;DHT22;51617;48.158;16.464;2023-02-03T04:59:07;4.90;99.90
65044;DHT22;51617;48.158;16.464;2023-02-03T05:01:32;4.90;99.90
65044;DHT22;51617;48.158;16.464;2023-02-03T05:03:58;4.90;99.90
65044;DHT22;51617;48.158;16.464;2023-02-03T05:06:25;4.90;99.90
65044;DHT22;51617;48.158;16.464;2023-02-03T05:08:53;4.90;99.90
65044;DHT22;51617;48.158;16.464;2023-02-03T05:11:19;4.90;99.90
65044;DHT22;51617;48.158;16.464;2023-02-03T05:13:45;5.00;99.90
65044;DHT22;51617;48.158;16.464;2023-02-03T05:16:11;5.00;99.90
65044;DHT22;51617;48.158;16.464;2023-02-03T05:18:37;5.00;99.90
65044;DHT22;51617;48.158;16.464;2023-02-03T05:21:02;5.00;99.90
65044;DHT22;51617;48.158;16.464;2023-02-03T05:23:28;5.00;99.90
65044;DHT22;51617;48.158;16.464;2023-02-03T05:25:54;5.30;99.90
65044;DHT22;51617;48.158;16.464;2023-02-03T05:28:19;5.50;99.90
65044;DHT22;51617;48.158;16.464;2023-02-03T05:30:45;5.60;99.90
65044;DHT22;51617;48.158;16.464;2023-02-03T05:33:11;5.50;99.90
65044;DHT22;51617;48.158;16.464;2023-02-03T05:35:37;5.40;99.90
65044;DHT22;51617;48.158;16.464;2023-02-03T05:38:02;5.40;99.90
65044;DHT22;51617;48.158;16.464;2023-02-03T05:40:28;5.40;99.90
65044;DHT22;51617;48.158;16.464;2023-02-03T05:43:12;5.40;99.90
65044;DHT22;51617;48.158;16.464;2023-02-03T05:45:38;5.40;99.90
65044;DHT22;51617;48.158;16.464;2023-02-03T05:48:04;5.50;99.90
65044;DHT22;51617;48.158;16.464;2023-02-03T05:50:32;5.50;99.90
65044;DHT22;51617;48.158;16.464;2023-02-03T05:52:59;5.60;99.90
65044;DHT22;51617;48.158;16.464;2023-02-03T05:55:26;5.60;99.90
65044;DHT22;51617;48.158;16.464;2023-02-03T05:57:52;5.60;99.90
65044;DHT22;51617;48.158;16.464;2023-02-03T06:00:18;5.70;99.90
65044;DHT22;51617;48.158;16.464;2023-02-03T06:02:53;5.70;99.90
65044;DHT22;51617;48.158;16.464;2023-02-03T06:05:20;5.80;99.90
65044;DHT22;51617;48.158;16.464;2023-02-03T06:07:45;5.70;99.90
65044;DHT22;51617;48.158;16.464;2023-02-03T06:10:11;5.80;99.90
65044;DHT22;51617;48.158;16.464;2023-02-03T06:12:37;5.80;99.90
65044;DHT22;51617;48.158;16.464;2023-02-03T06:15:03;5.80;99.90
65044;DHT22;51617;48.158;16.464;2023-02-03T06:17:29;5.90;99.90
65044;DHT22;51617;48.158;16.464;2023-02-03T06:19:55;5.90;99.90
65044;DHT22;51617;48.158;16.464;2023-02-03T06:22:21;5.90;99.90
65044;DHT22;51617;48.158;16.464;2023-02-03T06:24:47;5.90;99.90
65044;DHT22;51617;48.158;16.464;2023-02-03T06:27:13;5.90;99.90
65044;DHT22;51617;48.158;16.464;2023-02-03T06:29:40;5.90;99.90
65044;DHT22;51617;48.158;16.464;2023-02-03T06:32:06;6.00;99.90
65044;DHT22;51617;48.158;16.464;2023-02-03T06:34:32;6.10;99.90
65044;DHT22;51617;48.158;16.464;2023-02-03T06:36:58;6.00;99.90
65044;DHT22;51617;48.158;16.464;2023-02-03T06:39:24;6.00;99.90
65044;DHT22;51617;48.158;16.464;2023-02-03T06:41:50;6.00;99.90
65044;DHT22;51617;48.158;16.464;2023-02-03T06:44:17;6.10;99.90
65044;DHT22;51617;48.158;16.464;2023-02-03T06:46:43;6.10;99.90
65044;DHT22;51617;48.158;16.464;2023-02-03T06:49:08;6.10;99.90
65044;DHT22;51617;48.158;16.464;2023-02-03T06:51:34;6.10;99.90
65044;DHT22;51617;48.158;16.464;2023-02-03T06:54:02;6.10;99.90
65044;DHT22;51617;48.158;16.464;2023-02-03T06:56:28;6.20;99.90
65044;DHT22;51617;48.158;16.464;2023-02-03T06:58:54;6.20;99.90
65044;DHT22;51617;48.158;16.464;2023-02-03T07:01:20;6.20;99.90
65044;DHT22;51617;48.158;16.464;2023-02-03T07:03:46;6.20;99.90
65044;DHT22;51617;48.158;16.464;2023-02-03T07:06:13;6.30;99.90
65044;DHT22;51617;48.158;16.464;2023-02-03T07:08:38;6.30;99.90
65044;DHT22;51617;48.158;16.464;2023-02-03T07:11:04;6.30;99.90
65044;DHT22;51617;48.158;16.464;2023-02-03T07:13:30;6.40;99.90
65044;DHT22;51617;48.158;16.464;2023-02-03T07:15:56;6.40;99.90
65044;DHT22;51617;48.158;16.464;2023-02-03T07:18:21;6.40;99.90
65044;DHT22;51617;48.158;16.464;2023-02-03T07:20:51;6.50;99.90
65044;DHT22;51617;48.158;16.464;2023-02-03T07:23:17;6.50;99.90
65044;DHT22;51617;48.158;16.464;2023-02-03T07:25:44;6.50;99.90
65044;DHT22;51617;48.158;16.464;2023-02-03T07:28:10;6.50;99.90
65044;DHT22;51617;48.158;16.464;2023-02-03T07:30:36;6.50;99.90
65044;DHT22;51617;48.158;16.464;2023-02-03T07:33:02;6.50;99.90
65044;DHT22;51617;48.158;16.464;2023-02-03T07:35:27;6.50;99.90
65044;DHT22;51617;48.158;16.464;2023-02-03T07:37:53;6.40;99.90
65044;DHT22;51617;48.158;16.464;2023-02-03T07:40:19;6.40;99.90
65044;DHT22;51617;48.158;16.464;2023-02-03T07:42:46;6.50;99.90
65044;DHT22;51617;48.158;16.464;2023-02-03T07:45:14;6.50;99.90
65044;DHT22;51617;48.158;16.464;2023-02-03T07:47:41;6.50;99.90
65044;DHT22;51617;48.158;16.464;2023-02-03T07:50:08;6.50;99.90
65044;DHT22;51617;48.158;16.464;2023-02-03T07:52:34;6.50;99.90
65044;DHT22;51617;48.158;16.464;2023-02-03T07:55:00;6.60;99.90
65044;DHT22;51617;48.158;16.464;2023-02-03T07:57:26;6.60;99.90
65044;DHT22;51617;48.158;16.464;2023-02-03T07:59:51;6.60;99.90
65044;DHT22;51617;48.158;16.464;2023-02-03T08:02:17;6.60;99.90
65044;DHT22;51617;48.158;16.464;2023-02-03T08:04:43;6.70;99.80
65044;DHT22;51617;48.158;16.464;2023-02-03T08:07:08;6.80;99.80
65044;DHT22;51617;48.158;16.464;2023-02-03T08:09:34;6.90;99.70
65044;DHT22;51617;48.158;16.464;2023-02-03T08:12:00;6.90;99.60
65044;DHT22;51617;48.158;16.464;2023-02-03T08:14:25;7.00;99.00
65044;DHT22;51617;48.158;16.464;2023-02-03T08:16:51;7.00;99.30
65044;DHT22;51617;48.158;16.464;2023-02-03T08:19:17;7.10;99.50
65044;DHT22;51617;48.158;16.464;2023-02-03T08:21:42;7.10;99.60
65044;DHT22;51617;48.158;16.464;2023-02-03T08:24:08;7.10;99.20
65044;DHT22;51617;48.158;16.464;2023-02-03T08:26:37;7.20;99.40
65044;DHT22;51617;48.158;16.464;2023-02-03T08:29:03;7.20;99.30
65044;DHT22;51617;48.158;16.464;2023-02-03T08:31:30;7.20;98.70
65044;DHT22;51617;48.158;16.464;2023-02-03T08:33:55;7.30;98.50
65044;DHT22;51617;48.158;16.464;2023-02-03T08:36:22;7.30;98.60
65044;DHT22;51617;48.158;16.464;2023-02-03T08:38:47;7.40;98.50
65044;DHT22;51617;48.158;16.464;2023-02-03T08:41:15;7.40;98.10
65044;DHT22;51617;48.158;16.464;2023-02-03T08:43:43;7.40;98.60
65044;DHT22;51617;48.158;16.464;2023-02-03T08:46:10;7.50;97.90
65044;DHT22;51617;48.158;16.464;2023-02-03T08:48:36;7.50;97.80
65044;DHT22;51617;48.158;16.464;2023-02-03T08:51:12;7.50;97.50
65044;DHT22;51617;48.158;16.464;2023-02-03T08:53:38;7.50;97.60
65044;DHT22;51617;48.158;16.464;2023-02-03T08:56:09;7.60;97.20
65044;DHT22;51617;48.158;16.464;2023-02-03T08:58:35;7.60;97.30
65044;DHT22;51617;48.158;16.464;2023-02-03T09:01:08;7.70;96.90
65044;DHT22;51617;48.158;16.464;2023-02-03T09:03:34;7.70;96.90
65044;DHT22;51617;48.158;16.464;2023-02-03T09:06:00;7.70;96.70
65044;DHT22;51617;48.158;16.464;2023-02-03T09:08:27;7.70;96.70
65044;DHT22;51617;48.158;16.464;2023-02-03T09:10:52;7.80;96.60
65044;DHT22;51617;48.158;16.464;2023-02-03T09:13:18;7.80;96.90
65044;DHT22;51617;48.158;16.464;2023-02-03T09:15:44;7.90;96.30
65044;DHT22;51617;48.158;16.464;2023-02-03T09:18:09;7.90;96.60
65044;DHT22;51617;48.158;16.464;2023-02-03T09:20:35;8.00;96.10
65044;DHT22;51617;48.158;16.464;2023-02-03T09:23:01;8.00;96.00
65044;DHT22;51617;48.158;16.464;2023-02-03T09:25:26;8.10;95.90
65044;DHT22;51617;48.158;16.464;2023-02-03T09:27:52;8.10;95.50
65044;DHT22;51617;48.158;16.464;2023-02-03T09:30:18;8.10;95.40
65044;DHT22;51617;48.158;16.464;2023-02-03T09:32:44;8.10;95.40
65044;DHT22;51617;48.158;16.464;2023-02-03T09:35:14;8.20;95.60
65044;DHT22;51617;48.158;16.464;2023-02-03T09:37:39;8.30;95.10
65044;DHT22;51617;48.158;16.464;2023-02-03T09:40:06;8.40;94.60
65044;DHT22;51617;48.158;16.464;2023-02-03T09:45:35;8.40;94.00
65044;DHT22;51617;48.158;16.464;2023-02-03T09:48:11;8.50;93.50
65044;DHT22;51617;48.158;16.464;2023-02-03T09:50:38;8.50;93.80
65044;DHT22;51617;48.158;16.464;2023-02-03T09:53:32;8.50;93.90
65044;DHT22;51617;48.158;16.464;2023-02-03T09:55:59;8.60;93.70
65044;DHT22;51617;48.158;16.464;2023-02-03T09:58:26;8.60;93.80
65044;DHT22;51617;48.158;16.464;2023-02-03T10:00:56;8.60;93.30
65044;DHT22;51617;48.158;16.464;2023-02-03T10:03:50;8.60;93.60
65044;DHT22;51617;48.158;16.464;2023-02-03T10:06:44;8.60;93.40
65044;DHT22;51617;48.158;16.464;2023-02-03T10:09:42;8.70;93.80
65044;DHT22;51617;48.158;16.464;2023-02-03T10:17:38;8.80;93.30
65044;DHT22;51617;48.158;16.464;2023-02-03T10:22:45;8.90;93.50
65044;DHT22;51617;48.158;16.464;2023-02-03T10:25:29;8.90;93.30
65044;DHT22;51617;48.158;16.464;2023-02-03T10:28:00;8.90;93.40
65044;DHT22;51617;48.158;16.464;2023-02-03T10:30:31;8.80;93.60
65044;DHT22;51617;48.158;16.464;2023-02-03T10:33:09;8.80;93.30
65044;DHT22;51617;48.158;16.464;2023-02-03T10:38:14;8.80;93.50
65044;DHT22;51617;48.158;16.464;2023-02-03T10:40:43;8.70;93.20
65044;DHT22;51617;48.158;16.464;2023-02-03T10:43:09;8.80;93.50
65044;DHT22;51617;48.158;16.464;2023-02-03T10:45:53;8.90;93.40
65044;DHT22;51617;48.158;16.464;2023-02-03T10:48:20;8.90;93.70
65044;DHT22;51617;48.158;16.464;2023-02-03T10:50:48;8.80;93.30
65044;DHT22;51617;48.158;16.464;2023-02-03T10:53:19;8.90;93.20
65044;DHT22;51617;48.158;16.464;2023-02-03T10:55:48;8.90;93.40
65044;DHT22;51617;48.158;16.464;2023-02-03T10:58:18;8.80;93.30
65044;DHT22;51617;48.158;16.464;2023-02-03T11:00:53;8.90;93.20
65044;DHT22;51617;48.158;16.464;2023-02-03T11:03:24;9.00;93.10
65044;DHT22;51617;48.158;16.464;2023-02-03T11:06:22;9.00;93.00
65044;DHT22;51617;48.158;16.464;2023-02-03T11:08:49;9.00;93.00
65044;DHT22;51617;48.158;16.464;2023-02-03T11:16:24;9.00;92.40
65044;DHT22;51617;48.158;16.464;2023-02-03T11:19:17;9.10;92.40
65044;DHT22;51617;48.158;16.464;2023-02-03T11:21:49;9.10;92.30
65044;DHT22;51617;48.158;16.464;2023-02-03T11:27:08;9.20;91.80
65044;DHT22;51617;48.158;16.464;2023-02-03T11:29:36;9.20;91.90
65044;DHT22;51617;48.158;16.464;2023-02-03T11:32:34;9.20;91.60
65044;DHT22;51617;48.158;16.464;2023-02-03T11:37:39;9.20;92.00
65044;DHT22;51617;48.158;16.464;2023-02-03T11:42:33;9.20;92.30
65044;DHT22;51617;48.158;16.464;2023-02-03T12:29:25;8.30;95.60
65044;DHT22;51617;48.158;16.464;2023-02-03T12:34:36;8.30;95.30
65044;DHT22;51617;48.158;16.464;2023-02-03T12:37:11;8.40;94.70
65044;DHT22;51617;48.158;16.464;2023-02-03T12:39:49;8.40;94.10
65044;DHT22;51617;48.158;16.464;2023-02-03T12:45:11;8.60;93.00
65044;DHT22;51617;48.158;16.464;2023-02-03T12:48:09;8.70;93.10
65044;DHT22;51617;48.158;16.464;2023-02-03T12:50:47;8.80;92.80
65044;DHT22;51617;48.158;16.464;2023-02-03T12:55:49;8.90;92.90
65044;DHT22;51617;48.158;16.464;2023-02-03T12:58:49;8.80;93.20
65044;DHT22;51617;48.158;16.464;2023-02-03T13:01:23;8.70;93.90
65044;DHT22;51617;48.158;16.464;2023-02-03T13:06:43;8.70;93.70
65044;DHT22;51617;48.158;16.464;2023-02-03T13:10:17;8.60;93.60
65044;DHT22;51617;48.158;16.464;2023-02-03T13:12:29;8.70;93.50
65044;DHT22;51617;48.158;16.464;2023-02-03T13:17:38;8.70;93.50
65044;DHT22;51617;48.158;16.464;2023-02-03T13:20:18;8.70;93.00
65044;DHT22;51617;48.158;16.464;2023-02-03T13:22:45;8.80;92.90
65044;DHT22;51617;48.158;16.464;2023-02-03T13:25:22;8.90;92.40
65044;DHT22;51617;48.158;16.464;2023-02-03T13:42:25;8.80;92.70
65044;DHT22;51617;48.158;16.464;2023-02-03T13:44:56;8.80;93.90
65044;DHT22;51617;48.158;16.464;2023-02-03T13:47:29;8.70;93.90
65044;DHT22;51617;48.158;16.464;2023-02-03T13:50:02;8.50;94.40
65044;DHT22;51617;48.158;16.464;2023-02-03T13:55:39;8.30;95.00
65044;DHT22;51617;48.158;16.464;2023-02-03T13:58:23;8.40;95.00
65044;DHT22;51617;48.158;16.464;2023-02-03T14:06:04;8.30;95.80
65044;DHT22;51617;48.158;16.464;2023-02-03T14:16:50;7.40;99.00
65044;DHT22;51617;48.158;16.464;2023-02-03T14:21:52;7.30;99.90
65044;DHT22;51617;48.158;16.464;2023-02-03T14:24:18;7.20;99.90
65044;DHT22;51617;48.158;16.464;2023-02-03T14:26:51;7.10;99.90
65044;DHT22;51617;48.158;16.464;2023-02-03T14:34:42;7.00;99.90
65044;DHT22;51617;48.158;16.464;2023-02-03T14:37:29;6.90;99.90
65044;DHT22;51617;48.158;16.464;2023-02-03T14:51:04;6.90;99.90
65044;DHT22;51617;48.158;16.464;2023-02-03T14:59:20;6.80;99.90
65044;DHT22;51617;48.158;16.464;2023-02-03T15:06:47;7.00;99.90
65044;DHT22;51617;48.158;16.464;2023-02-03T15:11:50;7.00;99.90
65044;DHT22;51617;48.158;16.464;2023-02-03T15:14:28;6.90;99.90
65044;DHT22;51617;48.158;16.464;2023-02-03T15:17:09;6.80;99.90
65044;DHT22;51617;48.158;16.464;2023-02-03T15:19:39;6.80;99.90
65044;DHT22;51617;48.158;16.464;2023-02-03T15:22:21;6.70;99.90
65044;DHT22;51617;48.158;16.464;2023-02-03T15:24:49;6.70;99.90
65044;DHT22;51617;48.158;16.464;2023-02-03T15:27:25;6.70;99.90
65044;DHT22;51617;48.158;16.464;2023-02-03T15:29:51;6.70;99.90
65044;DHT22;51617;48.158;16.464;2023-02-03T15:34:57;6.70;99.90
65044;DHT22;51617;48.158;16.464;2023-02-03T15:37:39;6.80;99.90
65044;DHT22;51617;48.158;16.464;2023-02-03T15:40:12;6.90;99.90
65044;DHT22;51617;48.158;16.464;2023-02-03T15:45:30;6.90;99.90
65044;DHT22;51617;48.158;16.464;2023-02-03T15:48:16;7.00;99.90
65044;DHT22;51617;48.158;16.464;2023-02-03T15:50:52;7.10;99.50
65044;DHT22;51617;48.158;16.464;2023-02-03T15:53:25;7.20;99.10
65044;DHT22;51617;48.158;16.464;2023-02-03T15:56:00;7.20;99.10
65044;DHT22;51617;48.158;16.464;2023-02-03T15:58:36;7.30;99.10
65044;DHT22;51617;48.158;16.464;2023-02-03T16:01:09;7.30;98.90
65044;DHT22;51617;48.158;16.464;2023-02-03T16:03:42;7.40;98.30
65044;DHT22;51617;48.158;16.464;2023-02-03T16:06:30;7.40;98.20
65044;DHT22;51617;48.158;16.464;2023-02-03T16:09:01;7.40;98.30
65044;DHT22;51617;48.158;16.464;2023-02-03T16:11:28;7.50;98.00
65044;DHT22;51617;48.158;16.464;2023-02-03T16:13:55;7.40;97.90
65044;DHT22;51617;48.158;16.464;2023-02-03T16:19:01;7.60;97.70
65044;DHT22;51617;48.158;16.464;2023-02-03T16:21:35;7.70;97.40
65044;DHT22;51617;48.158;16.464;2023-02-03T16:24:04;7.90;96.80
65044;DHT22;51617;48.158;16.464;2023-02-03T16:26:32;7.90;96.50
65044;DHT22;51617;48.158;16.464;2023-02-03T16:31:52;7.90;96.80
65044;DHT22;51617;48.158;16.464;2023-02-03T16:34:36;7.90;96.70
65044;DHT22;51617;48.158;16.464;2023-02-03T16:37:26;8.00;96.30
65044;DHT22;51617;48.158;16.464;2023-02-03T16:40:14;8.10;96.20
65044;DHT22;51617;48.158;16.464;2023-02-03T16:43:01;8.10;95.70
65044;DHT22;51617;48.158;16.464;2023-02-03T16:45:45;8.10;95.70
65044;DHT22;51617;48.158;16.464;2023-02-03T16:48:34;8.20;95.50
65044;DHT22;51617;48.158;16.464;2023-02-03T16:51:19;8.20;95.50
65044;DHT22;51617;48.158;16.464;2023-02-03T16:53:45;8.30;94.90
65044;DHT22;51617;48.158;16.464;2023-02-03T16:56:15;8.30;95.20
65044;DHT22;51617;48.158;16.464;2023-02-03T16:58:43;8.30;95.30
65044;DHT22;51617;48.158;16.464;2023-02-03T17:01:09;8.30;95.10
65044;DHT22;51617;48.158;16.464;2023-02-03T17:03:36;8.50;95.20
65044;DHT22;51617;48.158;16.464;2023-02-03T17:06:05;8.50;94.90
65044;DHT22;51617;48.158;16.464;2023-02-03T17:08:30;8.50;94.60
65044;DHT22;51617;48.158;16.464;2023-02-03T17:11:06;8.60;94.70
65044;DHT22;51617;48.158;16.464;2023-02-03T17:13:32;8.60;94.50
65044;DHT22;51617;48.158;16.464;2023-02-03T17:15:58;8.60;94.60
65044;DHT22;51617;48.158;16.464;2023-02-03T17:18:24;8.70;94.70
65044;DHT22;51617;48.158;16.464;2023-02-03T17:20:50;8.60;94.80
65044;DHT22;51617;48.158;16.464;2023-02-03T17:23:16;8.60;94.90
65044;DHT22;51617;48.158;16.464;2023-02-03T17:25:44;8.50;95.00
65044;DHT22;51617;48.158;16.464;2023-02-03T17:28:11;8.60;95.20
65044;DHT22;51617;48.158;16.464;2023-02-03T17:30:38;8.50;95.90
65044;DHT22;51617;48.158;16.464;2023-02-03T17:33:06;8.40;96.00
65044;DHT22;51617;48.158;16.464;2023-02-03T17:35:38;8.40;96.10
65044;DHT22;51617;48.158;16.464;2023-02-03T17:38:04;8.40;96.30
65044;DHT22;51617;48.158;16.464;2023-02-03T17:40:30;8.40;95.80
65044;DHT22;51617;48.158;16.464;2023-02-03T17:42:55;8.40;95.80
65044;DHT22;51617;48.158;16.464;2023-02-03T17:45:21;8.40;95.30
65044;DHT22;51617;48.158;16.464;2023-02-03T17:47:48;8.50;95.50
65044;DHT22;51617;48.158;16.464;2023-02-03T17:50:15;8.40;95.80
65044;DHT22;51617;48.158;16.464;2023-02-03T17:52:43;8.40;96.40
65044;DHT22;51617;48.158;16.464;2023-02-03T17:55:09;8.40;96.30
65044;DHT22;51617;48.158;16.464;2023-02-03T17:57:39;8.40;96.00
65044;DHT22;51617;48.158;16.464;2023-02-03T18:00:05;8.50;96.10
65044;DHT22;51617;48.158;16.464;2023-02-03T18:02:31;8.40;96.50
65044;DHT22;51617;48.158;16.464;2023-02-03T18:04:57;8.30;97.40
65044;DHT22;51617;48.158;16.464;2023-02-03T18:07:23;8.10;98.80
65044;DHT22;51617;48.158;16.464;2023-02-03T18:09:49;7.70;99.60
65044;DHT22;51617;48.158;16.464;2023-02-03T18:12:15;7.40;99.90
65044;DHT22;51617;48.158;16.464;2023-02-03T18:14:41;7.30;99.90
65044;DHT22;51617;48.158;16.464;2023-02-03T18:17:07;7.10;99.90
65044;DHT22;51617;48.158;16.464;2023-02-03T18:19:34;7.10;99.90
65044;DHT22;51617;48.158;16.464;2023-02-03T18:22:00;7.00;99.90
65044;DHT22;51617;48.158;16.464;2023-02-03T18:24:26;7.00;99.90
65044;DHT22;51617;48.158;16.464;2023-02-03T18:26:54;7.00;99.90
65044;DHT22;51617;48.158;16.464;2023-02-03T18:29:20;6.90;99.90
65044;DHT22;51617;48.158;16.464;2023-02-03T18:31:47;7.00;99.90
65044;DHT22;51617;48.158;16.464;2023-02-03T18:34:14;7.00;99.90
65044;DHT22;51617;48.158;16.464;2023-02-03T18:36:42;7.00;99.90
65044;DHT22;51617;48.158;16.464;2023-02-03T18:39:08;7.00;99.90
65044;DHT22;51617;48.158;16.464;2023-02-03T18:41:34;7.00;99.90
65044;DHT22;51617;48.158;16.464;2023-02-03T18:44:02;7.00;99.90
65044;DHT22;51617;48.158;16.464;2023-02-03T18:46:30;7.00;99.90
65044;DHT22;51617;48.158;16.464;2023-02-03T18:48:56;7.10;99.90